sensor_id;sensor_type;location;lat;lon;timestamp;P1;durP1;ratioP1;P2;durP2;ratioP2
22715;SDS011;11525;51.152;4.456;2024-03-02T00:00:23;2.25;;;1.60;;
22715;SDS011;11525;51.152;4.456;2024-03-02T00:02:50;2.55;;;1.83;;
22715;SDS011;11525;51.152;4.456;2024-03-02T00:05:20;4.68;;;2.30;;
22715;SDS011;11525;51.152;4.456;2024-03-02T00:07:53;1.83;;;1.73;;
22715;SDS011;11525;51.152;4.456;2024-03-02T00:10:33;2.20;;;2.00;;
22715;SDS011;11525;51.152;4.456;2024-03-02T00:13:07;3.38;;;2.05;;
22715;SDS011;11525;51.152;4.456;2024-03-02T00:15:47;2.00;;;1.75;;
22715;SDS011;11525;51.152;4.456;2024-03-02T00:18:18;3.13;;;2.08;;
22715;SDS011;11525;51.152;4.456;2024-03-02T00:20:45;2.22;;;2.00;;
22715;SDS011;11525;51.152;4.456;2024-03-02T00:23:14;3.22;;;2.05;;
22715;SDS011;11525;51.152;4.456;2024-03-02T00:25:43;2.10;;;2.00;;
22715;SDS011;11525;51.152;4.456;2024-03-02T00:28:13;2.10;;;1.70;;
22715;SDS011;11525;51.152;4.456;2024-03-02T00:33:08;3.28;;;2.25;;
22715;SDS011;11525;51.152;4.456;2024-03-02T00:35:35;1.98;;;1.85;;
22715;SDS011;11525;51.152;4.456;2024-03-02T00:38:04;2.38;;;2.08;;
22715;SDS011;11525;51.152;4.456;2024-03-02T00:40:31;3.05;;;2.05;;
22715;SDS011;11525;51.152;4.456;2024-03-02T00:42:57;3.78;;;1.95;;
22715;SDS011;11525;51.152;4.456;2024-03-02T00:45:23;2.22;;;2.03;;
22715;SDS011;11525;51.152;4.456;2024-03-02T00:47:50;1.90;;;1.80;;
22715;SDS011;11525;51.152;4.456;2024-03-02T00:50:16;2.92;;;1.90;;
22715;SDS011;11525;51.152;4.456;2024-03-02T00:52:42;2.35;;;1.98;;
22715;SDS011;11525;51.152;4.456;2024-03-02T00:55:08;3.25;;;2.03;;
22715;SDS011;11525;51.152;4.456;2024-03-02T00:57:34;2.20;;;1.92;;
22715;SDS011;11525;51.152;4.456;2024-03-02T01:00:00;2.85;;;2.10;;
22715;SDS011;11525;51.152;4.456;2024-03-02T01:02:26;2.38;;;1.88;;
22715;SDS011;11525;51.152;4.456;2024-03-02T01:04:53;2.20;;;2.00;;
22715;SDS011;11525;51.152;4.456;2024-03-02T01:07:18;2.10;;;2.00;;
22715;SDS011;11525;51.152;4.456;2024-03-02T01:09:44;2.55;;;1.90;;
22715;SDS011;11525;51.152;4.456;2024-03-02T01:12:10;2.80;;;2.10;;
22715;SDS011;11525;51.152;4.456;2024-03-02T01:14:35;2.72;;;2.10;;
22715;SDS011;11525;51.152;4.456;2024-03-02T01:17:01;2.58;;;2.05;;
22715;SDS011;11525;51.152;4.456;2024-03-02T01:19:29;2.08;;;1.88;;
22715;SDS011;11525;51.152;4.456;2024-03-02T01:21:55;1.98;;;1.83;;
22715;SDS011;11525;51.152;4.456;2024-03-02T01:24:21;3.50;;;2.05;;
22715;SDS011;11525;51.152;4.456;2024-03-02T01:26:46;5.18;;;2.00;;
22715;SDS011;11525;51.152;4.456;2024-03-02T01:29:12;2.25;;;2.05;;
22715;SDS011;11525;51.152;4.456;2024-03-02T01:31:37;2.83;;;1.90;;
22715;SDS011;11525;51.152;4.456;2024-03-02T01:34:07;3.30;;;2.20;;
22715;SDS011;11525;51.152;4.456;2024-03-02T01:36:32;2.15;;;1.95;;
22715;SDS011;11525;51.152;4.456;2024-03-02T01:38:58;1.90;;;1.80;;
22715;SDS011;11525;51.152;4.456;2024-03-02T01:41:24;2.00;;;1.80;;
22715;SDS011;11525;51.152;4.456;2024-03-02T01:43:50;1.67;;;1.58;;
22715;SDS011;11525;51.152;4.456;2024-03-02T01:46:16;1.95;;;1.80;;
22715;SDS011;11525;51.152;4.456;2024-03-02T01:48:41;2.03;;;1.80;;
22715;SDS011;11525;51.152;4.456;2024-03-02T01:51:07;2.20;;;1.50;;
22715;SDS011;11525;51.152;4.456;2024-03-02T01:53:33;2.47;;;1.83;;
22715;SDS011;11525;51.152;4.456;2024-03-02T01:56:00;2.50;;;1.65;;
22715;SDS011;11525;51.152;4.456;2024-03-02T01:58:26;2.20;;;2.00;;
22715;SDS011;11525;51.152;4.456;2024-03-02T02:00:52;2.85;;;1.80;;
22715;SDS011;11525;51.152;4.456;2024-03-02T02:03:18;2.75;;;1.98;;
22715;SDS011;11525;51.152;4.456;2024-03-02T02:05:43;2.05;;;1.90;;
22715;SDS011;11525;51.152;4.456;2024-03-02T02:08:09;2.00;;;1.80;;
22715;SDS011;11525;51.152;4.456;2024-03-02T02:10:35;2.15;;;1.77;;
22715;SDS011;11525;51.152;4.456;2024-03-02T02:13:01;2.75;;;1.85;;
22715;SDS011;11525;51.152;4.456;2024-03-02T02:15:28;2.83;;;1.88;;
22715;SDS011;11525;51.152;4.456;2024-03-02T02:17:56;2.25;;;1.80;;
22715;SDS011;11525;51.152;4.456;2024-03-02T02:20:22;1.60;;;1.50;;
22715;SDS011;11525;51.152;4.456;2024-03-02T02:22:59;1.75;;;1.65;;
22715;SDS011;11525;51.152;4.456;2024-03-02T02:25:26;3.78;;;2.03;;
22715;SDS011;11525;51.152;4.456;2024-03-02T02:27:52;1.90;;;1.70;;
22715;SDS011;11525;51.152;4.456;2024-03-02T02:30:21;2.15;;;1.90;;
22715;SDS011;11525;51.152;4.456;2024-03-02T02:32:51;1.73;;;1.48;;
22715;SDS011;11525;51.152;4.456;2024-03-02T02:35:17;2.58;;;1.98;;
22715;SDS011;11525;51.152;4.456;2024-03-02T02:37:43;4.57;;;1.60;;
22715;SDS011;11525;51.152;4.456;2024-03-02T02:40:10;3.25;;;1.90;;
22715;SDS011;11525;51.152;4.456;2024-03-02T02:42:37;2.28;;;2.00;;
22715;SDS011;11525;51.152;4.456;2024-03-02T02:45:03;2.47;;;2.10;;
22715;SDS011;11525;51.152;4.456;2024-03-02T02:47:29;1.65;;;1.55;;
22715;SDS011;11525;51.152;4.456;2024-03-02T02:49:55;3.60;;;1.75;;
22715;SDS011;11525;51.152;4.456;2024-03-02T02:52:21;2.20;;;1.80;;
22715;SDS011;11525;51.152;4.456;2024-03-02T02:54:47;2.78;;;1.90;;
22715;SDS011;11525;51.152;4.456;2024-03-02T02:57:12;3.75;;;2.05;;
22715;SDS011;11525;51.152;4.456;2024-03-02T02:59:38;3.10;;;2.33;;
22715;SDS011;11525;51.152;4.456;2024-03-02T03:02:04;5.00;;;2.10;;
22715;SDS011;11525;51.152;4.456;2024-03-02T03:04:30;4.03;;;1.95;;
22715;SDS011;11525;51.152;4.456;2024-03-02T03:06:55;3.90;;;1.75;;
22715;SDS011;11525;51.152;4.456;2024-03-02T03:09:21;5.75;;;2.50;;
22715;SDS011;11525;51.152;4.456;2024-03-02T03:11:47;3.92;;;2.08;;
22715;SDS011;11525;51.152;4.456;2024-03-02T03:14:12;4.38;;;2.22;;
22715;SDS011;11525;51.152;4.456;2024-03-02T03:16:38;7.57;;;2.08;;
22715;SDS011;11525;51.152;4.456;2024-03-02T03:19:04;3.00;;;2.10;;
22715;SDS011;11525;51.152;4.456;2024-03-02T03:21:29;4.45;;;2.00;;
22715;SDS011;11525;51.152;4.456;2024-03-02T03:23:55;4.82;;;2.30;;
22715;SDS011;11525;51.152;4.456;2024-03-02T03:26:20;4.15;;;2.20;;
22715;SDS011;11525;51.152;4.456;2024-03-02T03:28:46;4.25;;;2.38;;
22715;SDS011;11525;51.152;4.456;2024-03-02T03:31:11;5.70;;;2.20;;
22715;SDS011;11525;51.152;4.456;2024-03-02T03:33:37;3.17;;;1.90;;
22715;SDS011;11525;51.152;4.456;2024-03-02T03:36:03;2.55;;;1.90;;
22715;SDS011;11525;51.152;4.456;2024-03-02T03:38:29;4.55;;;1.90;;
22715;SDS011;11525;51.152;4.456;2024-03-02T03:40:55;3.55;;;2.10;;
22715;SDS011;11525;51.152;4.456;2024-03-02T03:43:21;7.03;;;1.70;;
22715;SDS011;11525;51.152;4.456;2024-03-02T03:45:46;2.60;;;1.80;;
22715;SDS011;11525;51.152;4.456;2024-03-02T03:48:12;2.25;;;2.03;;
22715;SDS011;11525;51.152;4.456;2024-03-02T03:50:37;5.18;;;1.92;;
22715;SDS011;11525;51.152;4.456;2024-03-02T03:53:03;4.85;;;2.22;;
22715;SDS011;11525;51.152;4.456;2024-03-02T03:55:29;2.90;;;2.00;;
22715;SDS011;11525;51.152;4.456;2024-03-02T03:57:54;3.30;;;2.30;;
22715;SDS011;11525;51.152;4.456;2024-03-02T04:00:20;3.47;;;1.80;;
22715;SDS011;11525;51.152;4.456;2024-03-02T04:02:46;4.65;;;2.10;;
22715;SDS011;11525;51.152;4.456;2024-03-02T04:05:12;3.70;;;2.10;;
22715;SDS011;11525;51.152;4.456;2024-03-02T04:07:38;2.72;;;1.90;;
22715;SDS011;11525;51.152;4.456;2024-03-02T04:10:06;4.57;;;2.03;;
22715;SDS011;11525;51.152;4.456;2024-03-02T04:12:33;4.28;;;2.05;;
22715;SDS011;11525;51.152;4.456;2024-03-02T04:15:00;3.28;;;2.15;;
22715;SDS011;11525;51.152;4.456;2024-03-02T04:17:27;5.63;;;2.50;;
22715;SDS011;11525;51.152;4.456;2024-03-02T04:19:52;4.50;;;2.20;;
22715;SDS011;11525;51.152;4.456;2024-03-02T04:22:18;2.67;;;2.00;;
22715;SDS011;11525;51.152;4.456;2024-03-02T04:24:43;4.00;;;2.05;;
22715;SDS011;11525;51.152;4.456;2024-03-02T04:27:09;2.80;;;2.00;;
22715;SDS011;11525;51.152;4.456;2024-03-02T04:29:35;3.83;;;2.53;;
22715;SDS011;11525;51.152;4.456;2024-03-02T04:32:00;3.72;;;2.25;;
22715;SDS011;11525;51.152;4.456;2024-03-02T04:34:26;3.10;;;2.15;;
22715;SDS011;11525;51.152;4.456;2024-03-02T04:36:51;3.65;;;2.60;;
22715;SDS011;11525;51.152;4.456;2024-03-02T04:39:17;6.18;;;2.50;;
22715;SDS011;11525;51.152;4.456;2024-03-02T04:41:43;3.00;;;1.98;;
22715;SDS011;11525;51.152;4.456;2024-03-02T04:44:09;4.57;;;2.45;;
22715;SDS011;11525;51.152;4.456;2024-03-02T04:46:34;5.30;;;2.63;;
22715;SDS011;11525;51.152;4.456;2024-03-02T04:49:00;4.00;;;2.50;;
22715;SDS011;11525;51.152;4.456;2024-03-02T04:51:25;3.25;;;2.65;;
22715;SDS011;11525;51.152;4.456;2024-03-02T04:53:51;3.25;;;2.30;;
22715;SDS011;11525;51.152;4.456;2024-03-02T04:56:17;6.60;;;2.40;;
22715;SDS011;11525;51.152;4.456;2024-03-02T04:58:51;5.25;;;2.83;;
22715;SDS011;11525;51.152;4.456;2024-03-02T05:01:16;6.60;;;2.67;;
22715;SDS011;11525;51.152;4.456;2024-03-02T05:03:42;5.78;;;2.40;;
22715;SDS011;11525;51.152;4.456;2024-03-02T05:06:08;3.72;;;2.25;;
22715;SDS011;11525;51.152;4.456;2024-03-02T05:08:33;9.10;;;2.55;;
22715;SDS011;11525;51.152;4.456;2024-03-02T05:11:02;2.92;;;2.40;;
22715;SDS011;11525;51.152;4.456;2024-03-02T05:13:54;3.88;;;2.17;;
22715;SDS011;11525;51.152;4.456;2024-03-02T05:16:19;3.40;;;2.67;;
22715;SDS011;11525;51.152;4.456;2024-03-02T05:18:45;2.58;;;2.28;;
22715;SDS011;11525;51.152;4.456;2024-03-02T05:21:11;4.25;;;2.35;;
22715;SDS011;11525;51.152;4.456;2024-03-02T05:23:36;3.13;;;2.33;;
22715;SDS011;11525;51.152;4.456;2024-03-02T05:26:02;5.90;;;2.30;;
22715;SDS011;11525;51.152;4.456;2024-03-02T05:28:27;4.85;;;2.47;;
22715;SDS011;11525;51.152;4.456;2024-03-02T05:30:53;4.85;;;2.63;;
22715;SDS011;11525;51.152;4.456;2024-03-02T05:33:20;4.75;;;2.35;;
22715;SDS011;11525;51.152;4.456;2024-03-02T05:35:47;6.15;;;2.35;;
22715;SDS011;11525;51.152;4.456;2024-03-02T05:38:15;5.80;;;2.47;;
22715;SDS011;11525;51.152;4.456;2024-03-02T05:40:40;6.45;;;2.35;;
22715;SDS011;11525;51.152;4.456;2024-03-02T05:43:06;7.55;;;2.92;;
22715;SDS011;11525;51.152;4.456;2024-03-02T05:45:32;5.43;;;2.47;;
22715;SDS011;11525;51.152;4.456;2024-03-02T05:47:57;4.22;;;2.60;;
22715;SDS011;11525;51.152;4.456;2024-03-02T05:50:23;5.22;;;2.53;;
22715;SDS011;11525;51.152;4.456;2024-03-02T05:52:49;5.50;;;2.97;;
22715;SDS011;11525;51.152;4.456;2024-03-02T05:55:14;4.97;;;3.08;;
22715;SDS011;11525;51.152;4.456;2024-03-02T05:57:40;6.72;;;2.80;;
22715;SDS011;11525;51.152;4.456;2024-03-02T06:00:06;4.60;;;2.92;;
22715;SDS011;11525;51.152;4.456;2024-03-02T06:02:33;5.53;;;3.10;;
22715;SDS011;11525;51.152;4.456;2024-03-02T06:05:00;5.65;;;3.95;;
22715;SDS011;11525;51.152;4.456;2024-03-02T06:07:26;7.50;;;4.30;;
22715;SDS011;11525;51.152;4.456;2024-03-02T06:09:51;8.20;;;4.13;;
22715;SDS011;11525;51.152;4.456;2024-03-02T06:12:18;5.90;;;3.70;;
22715;SDS011;11525;51.152;4.456;2024-03-02T06:14:44;7.68;;;3.47;;
22715;SDS011;11525;51.152;4.456;2024-03-02T06:17:09;6.35;;;3.50;;
22715;SDS011;11525;51.152;4.456;2024-03-02T06:19:35;7.72;;;3.30;;
22715;SDS011;11525;51.152;4.456;2024-03-02T06:22:01;4.97;;;2.67;;
22715;SDS011;11525;51.152;4.456;2024-03-02T06:24:26;8.63;;;3.47;;
22715;SDS011;11525;51.152;4.456;2024-03-02T06:26:52;7.32;;;3.20;;
22715;SDS011;11525;51.152;4.456;2024-03-02T06:29:18;8.38;;;2.80;;
22715;SDS011;11525;51.152;4.456;2024-03-02T06:31:43;5.07;;;2.90;;
22715;SDS011;11525;51.152;4.456;2024-03-02T06:34:09;5.93;;;2.45;;
22715;SDS011;11525;51.152;4.456;2024-03-02T06:36:34;4.15;;;2.20;;
22715;SDS011;11525;51.152;4.456;2024-03-02T06:39:00;6.60;;;2.40;;
22715;SDS011;11525;51.152;4.456;2024-03-02T06:41:26;5.40;;;2.30;;
22715;SDS011;11525;51.152;4.456;2024-03-02T06:43:51;4.78;;;2.60;;
22715;SDS011;11525;51.152;4.456;2024-03-02T06:46:24;4.72;;;2.70;;
22715;SDS011;11525;51.152;4.456;2024-03-02T06:48:50;12.07;;;2.85;;
22715;SDS011;11525;51.152;4.456;2024-03-02T06:51:16;6.75;;;2.72;;
22715;SDS011;11525;51.152;4.456;2024-03-02T06:53:41;5.00;;;2.55;;
22715;SDS011;11525;51.152;4.456;2024-03-02T06:56:07;3.03;;;2.45;;
22715;SDS011;11525;51.152;4.456;2024-03-02T06:58:33;4.18;;;2.47;;
22715;SDS011;11525;51.152;4.456;2024-03-02T07:00:59;3.90;;;2.05;;
22715;SDS011;11525;51.152;4.456;2024-03-02T07:03:25;5.97;;;2.40;;
22715;SDS011;11525;51.152;4.456;2024-03-02T07:05:51;6.47;;;3.33;;
22715;SDS011;11525;51.152;4.456;2024-03-02T07:08:16;6.00;;;3.00;;
22715;SDS011;11525;51.152;4.456;2024-03-02T07:10:42;6.88;;;3.10;;
22715;SDS011;11525;51.152;4.456;2024-03-02T07:13:08;6.40;;;3.42;;
22715;SDS011;11525;51.152;4.456;2024-03-02T07:15:33;9.30;;;2.92;;
22715;SDS011;11525;51.152;4.456;2024-03-02T07:18:15;3.80;;;2.50;;
22715;SDS011;11525;51.152;4.456;2024-03-02T07:20:40;5.10;;;2.65;;
22715;SDS011;11525;51.152;4.456;2024-03-02T07:23:06;5.95;;;3.40;;
22715;SDS011;11525;51.152;4.456;2024-03-02T07:25:32;6.05;;;2.70;;
22715;SDS011;11525;51.152;4.456;2024-03-02T07:27:57;5.18;;;2.63;;
22715;SDS011;11525;51.152;4.456;2024-03-02T07:30:23;9.05;;;3.63;;
22715;SDS011;11525;51.152;4.456;2024-03-02T07:32:52;7.75;;;2.88;;
22715;SDS011;11525;51.152;4.456;2024-03-02T07:35:17;8.13;;;3.13;;
22715;SDS011;11525;51.152;4.456;2024-03-02T07:37:43;11.77;;;3.17;;
22715;SDS011;11525;51.152;4.456;2024-03-02T07:40:09;7.18;;;2.97;;
22715;SDS011;11525;51.152;4.456;2024-03-02T07:42:42;5.25;;;2.80;;
22715;SDS011;11525;51.152;4.456;2024-03-02T07:45:08;5.40;;;3.15;;
22715;SDS011;11525;51.152;4.456;2024-03-02T07:47:34;5.63;;;2.78;;
22715;SDS011;11525;51.152;4.456;2024-03-02T07:50:00;8.88;;;3.70;;
22715;SDS011;11525;51.152;4.456;2024-03-02T07:52:26;5.55;;;3.03;;
22715;SDS011;11525;51.152;4.456;2024-03-02T07:54:51;5.50;;;2.75;;
22715;SDS011;11525;51.152;4.456;2024-03-02T07:57:17;7.65;;;3.22;;
22715;SDS011;11525;51.152;4.456;2024-03-02T07:59:43;7.15;;;2.83;;
22715;SDS011;11525;51.152;4.456;2024-03-02T08:02:08;5.53;;;2.47;;
22715;SDS011;11525;51.152;4.456;2024-03-02T08:04:35;8.15;;;3.00;;
22715;SDS011;11525;51.152;4.456;2024-03-02T08:07:02;4.20;;;2.67;;
22715;SDS011;11525;51.152;4.456;2024-03-02T08:09:28;6.93;;;2.40;;
22715;SDS011;11525;51.152;4.456;2024-03-02T08:11:53;6.47;;;2.83;;
22715;SDS011;11525;51.152;4.456;2024-03-02T08:14:19;11.98;;;3.72;;
22715;SDS011;11525;51.152;4.456;2024-03-02T08:16:44;6.22;;;3.17;;
22715;SDS011;11525;51.152;4.456;2024-03-02T08:19:11;7.25;;;3.13;;
22715;SDS011;11525;51.152;4.456;2024-03-02T08:21:37;6.72;;;2.88;;
22715;SDS011;11525;51.152;4.456;2024-03-02T08:24:02;6.63;;;2.95;;
22715;SDS011;11525;51.152;4.456;2024-03-02T08:26:28;7.65;;;2.75;;
22715;SDS011;11525;51.152;4.456;2024-03-02T08:28:56;8.77;;;3.22;;
22715;SDS011;11525;51.152;4.456;2024-03-02T08:31:22;6.30;;;2.75;;
22715;SDS011;11525;51.152;4.456;2024-03-02T08:33:48;8.82;;;2.80;;
22715;SDS011;11525;51.152;4.456;2024-03-02T08:36:14;8.13;;;2.72;;
22715;SDS011;11525;51.152;4.456;2024-03-02T08:38:40;4.25;;;2.25;;
22715;SDS011;11525;51.152;4.456;2024-03-02T08:41:06;8.15;;;2.78;;
22715;SDS011;11525;51.152;4.456;2024-03-02T08:43:32;4.63;;;2.45;;
22715;SDS011;11525;51.152;4.456;2024-03-02T08:45:58;7.60;;;2.35;;
22715;SDS011;11525;51.152;4.456;2024-03-02T08:48:24;5.82;;;2.08;;
22715;SDS011;11525;51.152;4.456;2024-03-02T08:50:50;9.02;;;2.10;;
22715;SDS011;11525;51.152;4.456;2024-03-02T08:53:15;8.15;;;2.53;;
22715;SDS011;11525;51.152;4.456;2024-03-02T08:55:46;4.38;;;2.63;;
22715;SDS011;11525;51.152;4.456;2024-03-02T08:58:12;7.53;;;2.30;;
22715;SDS011;11525;51.152;4.456;2024-03-02T09:00:38;5.65;;;2.20;;
22715;SDS011;11525;51.152;4.456;2024-03-02T09:03:04;5.78;;;2.20;;
22715;SDS011;11525;51.152;4.456;2024-03-02T09:05:30;7.47;;;2.05;;
22715;SDS011;11525;51.152;4.456;2024-03-02T09:07:55;7.75;;;2.33;;
22715;SDS011;11525;51.152;4.456;2024-03-02T09:10:21;6.53;;;1.95;;
22715;SDS011;11525;51.152;4.456;2024-03-02T09:12:47;5.53;;;1.92;;
22715;SDS011;11525;51.152;4.456;2024-03-02T09:15:12;5.45;;;2.05;;
22715;SDS011;11525;51.152;4.456;2024-03-02T09:17:38;5.43;;;2.08;;
22715;SDS011;11525;51.152;4.456;2024-03-02T09:20:04;3.97;;;1.77;;
22715;SDS011;11525;51.152;4.456;2024-03-02T09:22:30;7.22;;;2.03;;
22715;SDS011;11525;51.152;4.456;2024-03-02T09:24:57;5.95;;;2.30;;
22715;SDS011;11525;51.152;4.456;2024-03-02T09:27:23;7.13;;;2.13;;
22715;SDS011;11525;51.152;4.456;2024-03-02T09:29:49;6.07;;;2.30;;
22715;SDS011;11525;51.152;4.456;2024-03-02T09:32:14;6.40;;;2.00;;
22715;SDS011;11525;51.152;4.456;2024-03-02T09:34:40;5.20;;;2.08;;
22715;SDS011;11525;51.152;4.456;2024-03-02T09:37:06;5.63;;;1.80;;
22715;SDS011;11525;51.152;4.456;2024-03-02T09:39:32;6.35;;;2.30;;
22715;SDS011;11525;51.152;4.456;2024-03-02T09:42:01;8.60;;;2.45;;
22715;SDS011;11525;51.152;4.456;2024-03-02T09:44:29;8.60;;;2.17;;
22715;SDS011;11525;51.152;4.456;2024-03-02T09:46:54;4.72;;;2.53;;
22715;SDS011;11525;51.152;4.456;2024-03-02T09:49:20;4.20;;;1.70;;
22715;SDS011;11525;51.152;4.456;2024-03-02T09:51:47;7.05;;;2.20;;
22715;SDS011;11525;51.152;4.456;2024-03-02T09:54:15;6.03;;;2.33;;
22715;SDS011;11525;51.152;4.456;2024-03-02T09:56:41;6.60;;;2.00;;
22715;SDS011;11525;51.152;4.456;2024-03-02T09:59:07;5.55;;;2.08;;
22715;SDS011;11525;51.152;4.456;2024-03-02T10:01:32;4.72;;;2.15;;
22715;SDS011;11525;51.152;4.456;2024-03-02T10:03:59;9.85;;;2.53;;
22715;SDS011;11525;51.152;4.456;2024-03-02T10:06:25;9.20;;;2.00;;
22715;SDS011;11525;51.152;4.456;2024-03-02T10:08:52;5.43;;;2.65;;
22715;SDS011;11525;51.152;4.456;2024-03-02T10:16:36;4.75;;;1.92;;
22715;SDS011;11525;51.152;4.456;2024-03-02T10:21:52;9.88;;;2.38;;
22715;SDS011;11525;51.152;4.456;2024-03-02T10:24:23;12.70;;;2.40;;
22715;SDS011;11525;51.152;4.456;2024-03-02T10:26:49;7.53;;;2.67;;
22715;SDS011;11525;51.152;4.456;2024-03-02T10:29:15;9.07;;;2.58;;
22715;SDS011;11525;51.152;4.456;2024-03-02T10:31:42;11.65;;;2.47;;
22715;SDS011;11525;51.152;4.456;2024-03-02T10:34:09;6.45;;;2.33;;
22715;SDS011;11525;51.152;4.456;2024-03-02T10:36:36;11.27;;;2.47;;
22715;SDS011;11525;51.152;4.456;2024-03-02T10:39:05;10.48;;;2.53;;
22715;SDS011;11525;51.152;4.456;2024-03-02T10:41:35;10.40;;;2.40;;
22715;SDS011;11525;51.152;4.456;2024-03-02T10:44:06;8.07;;;2.38;;
22715;SDS011;11525;51.152;4.456;2024-03-02T10:46:33;8.05;;;2.30;;
22715;SDS011;11525;51.152;4.456;2024-03-02T10:49:00;7.18;;;2.42;;
22715;SDS011;11525;51.152;4.456;2024-03-02T10:51:27;6.70;;;2.33;;
22715;SDS011;11525;51.152;4.456;2024-03-02T10:53:56;9.68;;;2.58;;
22715;SDS011;11525;51.152;4.456;2024-03-02T10:56:33;9.45;;;2.63;;
22715;SDS011;11525;51.152;4.456;2024-03-02T10:59:09;5.85;;;2.47;;
22715;SDS011;11525;51.152;4.456;2024-03-02T11:01:40;6.35;;;2.20;;
22715;SDS011;11525;51.152;4.456;2024-03-02T11:04:08;8.50;;;2.47;;
22715;SDS011;11525;51.152;4.456;2024-03-02T11:06:37;6.90;;;2.20;;
22715;SDS011;11525;51.152;4.456;2024-03-02T11:09:07;8.48;;;2.33;;
22715;SDS011;11525;51.152;4.456;2024-03-02T11:11:36;9.18;;;2.38;;
22715;SDS011;11525;51.152;4.456;2024-03-02T11:14:06;8.63;;;2.80;;
22715;SDS011;11525;51.152;4.456;2024-03-02T11:16:37;7.75;;;2.60;;
22715;SDS011;11525;51.152;4.456;2024-03-02T11:19:13;5.68;;;2.25;;
22715;SDS011;11525;51.152;4.456;2024-03-02T11:21:40;9.35;;;2.50;;
22715;SDS011;11525;51.152;4.456;2024-03-02T11:26:50;11.85;;;2.72;;
22715;SDS011;11525;51.152;4.456;2024-03-02T11:32:00;10.05;;;3.15;;
22715;SDS011;11525;51.152;4.456;2024-03-02T11:34:33;7.82;;;2.10;;
22715;SDS011;11525;51.152;4.456;2024-03-02T11:37:03;9.25;;;2.88;;
22715;SDS011;11525;51.152;4.456;2024-03-02T11:39:30;6.80;;;2.30;;
22715;SDS011;11525;51.152;4.456;2024-03-02T11:41:56;6.60;;;2.33;;
22715;SDS011;11525;51.152;4.456;2024-03-02T11:44:26;6.88;;;2.53;;
22715;SDS011;11525;51.152;4.456;2024-03-02T11:46:53;3.72;;;2.05;;
22715;SDS011;11525;51.152;4.456;2024-03-02T11:49:36;7.20;;;2.70;;
22715;SDS011;11525;51.152;4.456;2024-03-02T11:52:04;9.60;;;2.30;;
22715;SDS011;11525;51.152;4.456;2024-03-02T11:54:32;9.07;;;2.88;;
22715;SDS011;11525;51.152;4.456;2024-03-02T11:57:00;4.60;;;2.20;;
22715;SDS011;11525;51.152;4.456;2024-03-02T11:59:28;6.78;;;2.65;;
22715;SDS011;11525;51.152;4.456;2024-03-02T12:01:55;7.63;;;2.22;;
22715;SDS011;11525;51.152;4.456;2024-03-02T12:04:21;8.35;;;2.30;;
22715;SDS011;11525;51.152;4.456;2024-03-02T12:06:48;7.50;;;2.50;;
22715;SDS011;11525;51.152;4.456;2024-03-02T12:09:28;5.20;;;2.33;;
22715;SDS011;11525;51.152;4.456;2024-03-02T12:12:04;6.88;;;2.80;;
22715;SDS011;11525;51.152;4.456;2024-03-02T12:14:32;7.63;;;2.25;;
22715;SDS011;11525;51.152;4.456;2024-03-02T12:16:58;6.72;;;2.03;;
22715;SDS011;11525;51.152;4.456;2024-03-02T12:19:27;5.93;;;2.30;;
22715;SDS011;11525;51.152;4.456;2024-03-02T12:21:58;6.95;;;2.47;;
22715;SDS011;11525;51.152;4.456;2024-03-02T12:24:26;9.15;;;2.88;;
22715;SDS011;11525;51.152;4.456;2024-03-02T12:26:52;5.55;;;2.33;;
22715;SDS011;11525;51.152;4.456;2024-03-02T12:29:19;8.25;;;2.28;;
22715;SDS011;11525;51.152;4.456;2024-03-02T12:31:47;7.75;;;2.25;;
22715;SDS011;11525;51.152;4.456;2024-03-02T12:34:14;7.00;;;2.72;;
22715;SDS011;11525;51.152;4.456;2024-03-02T12:36:41;6.97;;;2.38;;
22715;SDS011;11525;51.152;4.456;2024-03-02T12:39:07;5.55;;;2.30;;
22715;SDS011;11525;51.152;4.456;2024-03-02T12:41:36;6.32;;;2.20;;
22715;SDS011;11525;51.152;4.456;2024-03-02T12:44:03;6.47;;;2.25;;
22715;SDS011;11525;51.152;4.456;2024-03-02T12:46:29;4.00;;;1.98;;
22715;SDS011;11525;51.152;4.456;2024-03-02T12:48:55;5.00;;;2.05;;
22715;SDS011;11525;51.152;4.456;2024-03-02T12:51:21;5.93;;;1.98;;
22715;SDS011;11525;51.152;4.456;2024-03-02T12:53:52;4.20;;;2.05;;
22715;SDS011;11525;51.152;4.456;2024-03-02T12:56:20;8.10;;;2.47;;
22715;SDS011;11525;51.152;4.456;2024-03-02T12:58:45;7.43;;;2.53;;
22715;SDS011;11525;51.152;4.456;2024-03-02T13:01:13;6.85;;;2.45;;
22715;SDS011;11525;51.152;4.456;2024-03-02T13:03:43;5.68;;;2.03;;
22715;SDS011;11525;51.152;4.456;2024-03-02T13:06:09;4.43;;;1.98;;
22715;SDS011;11525;51.152;4.456;2024-03-02T13:08:35;6.07;;;2.17;;
22715;SDS011;11525;51.152;4.456;2024-03-02T13:11:01;7.90;;;2.40;;
22715;SDS011;11525;51.152;4.456;2024-03-02T13:13:30;8.93;;;2.53;;
22715;SDS011;11525;51.152;4.456;2024-03-02T13:15:56;3.80;;;2.10;;
22715;SDS011;11525;51.152;4.456;2024-03-02T13:18:22;6.60;;;2.25;;
22715;SDS011;11525;51.152;4.456;2024-03-02T13:20:47;6.07;;;2.10;;
22715;SDS011;11525;51.152;4.456;2024-03-02T13:23:13;10.27;;;2.30;;
22715;SDS011;11525;51.152;4.456;2024-03-02T13:25:39;4.82;;;2.40;;
22715;SDS011;11525;51.152;4.456;2024-03-02T13:28:05;8.18;;;2.53;;
22715;SDS011;11525;51.152;4.456;2024-03-02T13:30:31;5.22;;;2.22;;
22715;SDS011;11525;51.152;4.456;2024-03-02T13:32:57;6.72;;;2.53;;
22715;SDS011;11525;51.152;4.456;2024-03-02T13:35:23;8.15;;;2.45;;
22715;SDS011;11525;51.152;4.456;2024-03-02T13:37:49;3.95;;;1.92;;
22715;SDS011;11525;51.152;4.456;2024-03-02T13:40:15;10.13;;;2.28;;
22715;SDS011;11525;51.152;4.456;2024-03-02T13:42:45;6.95;;;2.15;;
22715;SDS011;11525;51.152;4.456;2024-03-02T13:45:11;3.75;;;2.20;;
22715;SDS011;11525;51.152;4.456;2024-03-02T13:47:38;5.55;;;2.30;;
22715;SDS011;11525;51.152;4.456;2024-03-02T13:50:03;5.15;;;2.30;;
22715;SDS011;11525;51.152;4.456;2024-03-02T13:52:30;6.78;;;2.20;;
22715;SDS011;11525;51.152;4.456;2024-03-02T13:54:56;8.13;;;2.67;;
22715;SDS011;11525;51.152;4.456;2024-03-02T13:57:21;6.43;;;2.30;;
22715;SDS011;11525;51.152;4.456;2024-03-02T13:59:47;7.05;;;2.47;;
22715;SDS011;11525;51.152;4.456;2024-03-02T14:02:13;6.05;;;2.30;;
22715;SDS011;11525;51.152;4.456;2024-03-02T14:04:40;4.82;;;2.05;;
22715;SDS011;11525;51.152;4.456;2024-03-02T14:07:05;5.40;;;2.47;;
22715;SDS011;11525;51.152;4.456;2024-03-02T14:09:36;3.47;;;2.40;;
22715;SDS011;11525;51.152;4.456;2024-03-02T14:12:02;6.60;;;2.20;;
22715;SDS011;11525;51.152;4.456;2024-03-02T14:14:28;4.63;;;2.25;;
22715;SDS011;11525;51.152;4.456;2024-03-02T14:16:54;4.43;;;1.80;;
22715;SDS011;11525;51.152;4.456;2024-03-02T14:19:29;3.67;;;2.00;;
22715;SDS011;11525;51.152;4.456;2024-03-02T14:21:55;4.32;;;2.10;;
22715;SDS011;11525;51.152;4.456;2024-03-02T14:24:21;4.32;;;1.98;;
22715;SDS011;11525;51.152;4.456;2024-03-02T14:26:51;6.30;;;1.70;;
22715;SDS011;11525;51.152;4.456;2024-03-02T14:29:18;4.75;;;2.10;;
22715;SDS011;11525;51.152;4.456;2024-03-02T14:31:43;4.57;;;2.33;;
22715;SDS011;11525;51.152;4.456;2024-03-02T14:34:13;4.80;;;2.10;;
22715;SDS011;11525;51.152;4.456;2024-03-02T14:36:41;5.05;;;2.42;;
22715;SDS011;11525;51.152;4.456;2024-03-02T14:39:09;4.25;;;2.10;;
22715;SDS011;11525;51.152;4.456;2024-03-02T14:41:35;3.10;;;1.92;;
22715;SDS011;11525;51.152;4.456;2024-03-02T14:44:01;2.55;;;1.77;;
22715;SDS011;11525;51.152;4.456;2024-03-02T14:46:27;4.45;;;2.28;;
22715;SDS011;11525;51.152;4.456;2024-03-02T14:48:53;8.50;;;2.72;;
22715;SDS011;11525;51.152;4.456;2024-03-02T14:51:19;4.97;;;2.17;;
22715;SDS011;11525;51.152;4.456;2024-03-02T14:53:44;2.50;;;2.10;;
22715;SDS011;11525;51.152;4.456;2024-03-02T14:56:10;3.03;;;1.77;;
22715;SDS011;11525;51.152;4.456;2024-03-02T14:58:38;5.95;;;2.05;;
22715;SDS011;11525;51.152;4.456;2024-03-02T15:01:03;5.10;;;1.95;;